Terminal Aerodrome Forecast
Issued by NWS Wilmington, OH

Current Version | Previous Version | Text Only | Print | Product List | Glossary Off
Versions: 1 2 3 4 5 6 7 8 9 10 11 12 13 14 15 16 17 18 19 20 21 22 23 24 25 26 27

000
FTUS41 KILN 120500
TAFCVG
TAF
KCVG 120537Z 1206/1312 35007KT P6SM FEW025 BKN250
      TEMPO 1209/1213 02006KT 5SM BR OVC022
     FM121300 05008KT P6SM OVC025
      TEMPO 1303/1306 SCT020
     FM130600 36007KT P6SM BKN025 OVC060=

USA.gov is the U.S. government's official web portal to all federal, state and local government web resources and services.